Time;durP1;ratioP1;P1;durP2;ratioP2;P2;SDS_P1;SDS_P2;PMS_P1;PMS_P2;Temp;Humidity;BMP_temperature;BMP_pressure;BME280_temperature;BME280_humidity;BME280_pressure;Samples;Min_cycle;Max_cycle;Signal;HPM_P1;HPM_P2
2023/05/22 00:01:45;;;;;;;13.80;4.80;;;;;;;10.34;58.80;99410.42;103314;1282;107927;-80
2023/05/22 00:04:19;;;;;;;10.20;4.50;;;;;;;10.31;58.83;99410.80;103546;1289;97838;-79
2023/05/22 00:06:48;;;;;;;11.70;4.60;;;;;;;10.29;58.97;99408.80;103526;1283;96728;-81
2023/05/22 00:09:16;;;;;;;15.50;5.10;;;;;;;10.28;58.91;99405.69;103377;1280;110152;-80
2023/05/22 00:11:44;;;;;;;9.50;4.00;;;;;;;10.29;59.04;99405.09;103419;1277;96654;-80
2023/05/22 00:14:12;;;;;;;13.30;4.60;;;;;;;10.25;58.92;99408.67;103439;1289;108601;-81
2023/05/22 00:16:41;;;;;;;11.30;4.40;;;;;;;10.21;59.05;99406.45;103381;1290;96627;-80
2023/05/22 00:19:12;;;;;;;10.50;4.20;;;;;;;10.20;59.09;99409.36;103507;1288;96619;-80
2023/05/22 00:21:41;;;;;;;13.00;4.50;;;;;;;10.24;59.10;99409.45;103493;1280;109196;-79
2023/05/22 00:24:09;;;;;;;13.60;4.30;;;;;;;10.28;59.17;99406.92;103557;1290;97631;-78
2023/05/22 00:26:37;;;;;;;13.10;4.60;;;;;;;10.28;59.20;99405.13;103449;1280;106539;-79
2023/05/22 00:29:05;;;;;;;14.80;4.70;;;;;;;10.24;59.13;99406.96;103419;1275;96735;-80
2023/05/22 00:31:34;;;;;;;7.90;4.10;;;;;;;10.21;59.20;99402.05;103501;1279;96736;-79
2023/05/22 00:34:01;;;;;;;11.50;4.50;;;;;;;10.15;59.32;99401.73;103602;1279;109622;-78
2023/05/22 00:36:29;;;;;;;10.50;4.90;;;;;;;10.10;59.32;99397.81;103484;1280;96663;-78
2023/05/22 00:38:57;;;;;;;11.90;4.80;;;;;;;10.09;59.41;99396.60;103478;1288;107954;-79
2023/05/22 00:41:25;;;;;;;12.20;4.40;;;;;;;10.08;59.49;99395.66;103497;1279;96737;-79
2023/05/22 00:43:53;;;;;;;14.70;5.20;;;;;;;10.04;59.44;99398.38;103524;1280;96623;-79
2023/05/22 00:46:23;;;;;;;11.40;4.30;;;;;;;9.98;59.45;99396.23;103414;1286;110254;-79
2023/05/22 00:48:54;;;;;;;12.10;4.70;;;;;;;9.95;59.50;99397.17;103462;1288;97827;-79
2023/05/22 00:51:23;;;;;;;12.10;4.90;;;;;;;9.95;59.66;99398.77;103468;1276;108905;-79
2023/05/22 00:53:52;;;;;;;14.00;5.10;;;;;;;9.93;59.60;99395.67;103412;1291;96686;-80
2023/05/22 00:56:20;;;;;;;14.40;5.00;;;;;;;9.95;59.75;99395.74;103444;1291;96641;-79
2023/05/22 00:58:49;;;;;;;12.90;5.20;;;;;;;9.92;59.61;99395.56;103549;1283;110245;-80
2023/05/22 01:01:17;;;;;;;13.00;4.70;;;;;;;9.86;59.68;99397.42;103421;1280;97562;-79
2023/05/22 01:03:45;;;;;;;12.60;4.80;;;;;;;9.80;59.75;99394.58;103396;1284;106475;-79
2023/05/22 01:06:17;;;;;;;10.60;4.20;;;;;;;9.77;59.86;99391.09;103500;1277;97249;-80
2023/05/22 01:08:44;;;;;;;14.30;4.90;;;;;;;9.77;59.88;99390.02;104381;1284;96729;-79
2023/05/22 01:11:21;;;;;;;11.60;4.50;;;;;;;9.74;59.89;99388.06;104416;1277;108725;-79
2023/05/22 01:14:22;;;;;;;13.00;4.90;;;;;;;9.77;59.93;99383.83;104222;1280;96665;-79
2023/05/22 01:17:15;;;;;;;13.00;4.90;;;;;;;9.80;60.04;99383.74;103420;1280;107976;-79
2023/05/22 01:19:52;;;;;;;12.20;4.70;;;;;;;9.81;60.02;99383.91;103418;1280;97975;-78
2023/05/22 01:22:46;;;;;;;12.30;4.40;;;;;;;9.76;59.96;99387.39;103437;1289;96576;-79
2023/05/22 01:25:56;;;;;;;13.60;4.90;;;;;;;9.69;59.94;99390.66;103294;1280;110633;-79
2023/05/22 01:28:49;;;;;;;12.30;4.80;;;;;;;9.67;60.20;99393.27;103330;1282;96698;-78
2023/05/22 01:31:28;;;;;;;11.60;4.90;;;;;;;9.66;60.14;99391.59;103328;1283;107925;-79
2023/05/22 01:34:00;;;;;;;13.70;4.90;;;;;;;9.62;60.17;99391.82;103310;1282;97582;-80
2023/05/22 01:36:33;;;;;;;14.80;4.90;;;;;;;9.56;60.24;99392.77;103372;1281;96660;-79
2023/05/22 01:39:04;;;;;;;10.60;4.70;;;;;;;9.52;60.20;99389.46;103373;1283;110276;-79
2023/05/22 01:41:33;;;;;;;15.10;4.80;;;;;;;9.51;60.39;99390.95;103455;1287;96634;-79
2023/05/22 01:44:01;;;;;;;13.70;5.30;;;;;;;9.47;60.39;99389.58;103264;1280;108161;-79
2023/05/22 01:46:30;;;;;;;16.30;5.00;;;;;;;9.42;60.41;99388.84;103286;1298;96646;-79
2023/05/22 01:48:58;;;;;;;12.00;4.90;;;;;;;9.42;60.45;99385.85;103401;1280;96693;-79
2023/05/22 01:51:45;;;;;;;11.60;4.70;;;;;;;9.42;60.50;99388.46;103343;1282;111130;-79
2023/05/22 01:54:22;;;;;;;12.40;4.70;;;;;;;9.36;60.59;99388.80;103341;1279;97587;-80
2023/05/22 01:57:08;;;;;;;13.60;4.70;;;;;;;9.36;60.64;99387.97;103657;1286;107993;-79
2023/05/22 01:59:47;;;;;;;12.60;4.80;;;;;;;9.34;60.71;99388.80;103121;1280;215187;-81
2023/05/22 02:02:19;;;;;;;13.70;5.10;;;;;;;9.30;60.67;99388.70;103558;1289;96650;-79
2023/05/22 02:04:54;;;;;;;14.80;5.60;;;;;;;9.28;60.76;99388.45;103305;1280;110684;-77
2023/05/22 02:07:25;;;;;;;11.40;4.90;;;;;;;9.25;60.79;99385.10;103381;1276;97445;-79
2023/05/22 02:09:55;;;;;;;15.00;5.00;;;;;;;9.25;60.84;99379.46;103310;1279;107744;-79
2023/05/22 02:12:24;;;;;;;13.10;5.10;;;;;;;9.21;60.98;99380.91;103578;1282;96677;-79
2023/05/22 02:14:53;;;;;;;14.60;5.30;;;;;;;9.20;60.91;99378.86;103559;1280;97979;-79
2023/05/22 02:17:20;;;;;;;12.60;5.20;;;;;;;9.25;60.90;99377.33;103343;1279;111681;-79
2023/05/22 02:19:48;;;;;;;12.20;5.20;;;;;;;9.28;61.03;99377.66;103366;1279;96662;-80
2023/05/22 02:22:16;;;;;;;15.90;5.60;;;;;;;9.23;60.94;99379.56;103382;1284;108735;-79
2023/05/22 02:24:48;;;;;;;14.60;5.10;;;;;;;9.20;61.01;99381.20;103468;1283;96822;-79
2023/05/22 02:27:17;;;;;;;14.80;5.70;;;;;;;9.17;61.05;99381.33;103518;1278;96603;-79
2023/05/22 02:29:45;;;;;;;13.30;5.40;;;;;;;9.16;61.04;99381.57;103323;1290;110895;-79
2023/05/22 02:32:13;;;;;;;11.40;4.90;;;;;;;9.16;61.15;99381.95;103369;1279;96639;-79
2023/05/22 02:34:40;;;;;;;18.50;6.00;;;;;;;9.13;61.04;99380.38;103376;1280;107896;-79
2023/05/22 02:37:09;;;;;;;15.90;6.00;;;;;;;9.07;61.04;99383.01;103384;1277;96660;-79
2023/05/22 02:39:37;;;;;;;18.20;6.60;;;;;;;9.08;61.25;99379.57;103434;1279;97476;-79
2023/05/22 02:42:05;;;;;;;13.60;5.30;;;;;;;9.08;61.26;99381.14;103364;1289;111349;-80
2023/05/22 02:44:33;;;;;;;12.60;5.20;;;;;;;9.08;61.28;99377.80;103380;1277;96630;-79
2023/05/22 02:47:00;;;;;;;13.20;5.40;;;;;;;9.07;61.35;99378.77;103390;1282;108012;-79
2023/05/22 02:49:28;;;;;;;14.90;5.40;;;;;;;9.08;61.33;99383.10;103413;1279;96772;-78
2023/05/22 02:51:56;;;;;;;13.50;5.70;;;;;;;9.05;60.91;99391.11;103549;1275;96756;-78
2023/05/22 02:54:25;;;;;;;13.80;5.30;;;;;;;9.00;61.31;99391.05;103369;1290;111226;-79
2023/05/22 02:56:52;;;;;;;14.00;5.20;;;;;;;8.99;61.43;99387.76;103392;1277;97263;-79
2023/05/22 02:59:20;;;;;;;14.80;5.30;;;;;;;9.00;61.37;99388.24;103648;1288;106788;-79
2023/05/22 03:01:49;;;;;;;15.80;5.10;;;;;;;9.04;61.65;99387.98;103419;1279;97041;-79
2023/05/22 03:04:17;;;;;;;19.80;6.20;;;;;;;9.06;61.74;99382.20;103400;1276;96634;-78
2023/05/22 03:06:45;;;;;;;12.40;4.90;;;;;;;9.10;61.60;99379.31;103410;1287;109896;-79
2023/05/22 03:09:13;;;;;;;14.40;4.90;;;;;;;9.17;61.65;99379.20;103491;1276;96711;-79
2023/05/22 03:11:41;;;;;;;15.40;5.50;;;;;;;9.26;61.64;99374.77;103326;1280;107784;-79
2023/05/22 03:14:09;;;;;;;14.00;5.40;;;;;;;9.33;61.69;99374.72;103419;1279;97581;-79
2023/05/22 03:16:37;;;;;;;13.80;5.30;;;;;;;9.38;61.73;99375.80;103354;1286;96601;-79
2023/05/22 03:19:12;;;;;;;16.30;5.60;;;;;;;9.42;61.82;99374.14;103424;1291;109436;-81
2023/05/22 03:21:43;;;;;;;13.60;5.00;;;;;;;9.47;61.91;99379.15;103523;1283;96634;-79
2023/05/22 03:24:11;;;;;;;13.10;5.00;;;;;;;9.53;61.99;99380.34;103568;1276;108032;-79
2023/05/22 03:26:40;;;;;;;11.70;5.00;;;;;;;9.57;62.07;99374.48;103361;1280;96711;-79
2023/05/22 03:29:08;;;;;;;12.60;5.30;;;;;;;9.58;62.05;99374.18;103379;1280;96624;-79
2023/05/22 03:31:36;;;;;;;12.60;5.20;;;;;;;9.65;62.05;99381.35;103477;1280;109292;-79
2023/05/22 03:34:04;;;;;;;13.20;5.10;;;;;;;9.72;62.09;99381.96;103406;1279;96712;-79
2023/05/22 03:36:33;;;;;;;14.80;5.40;;;;;;;9.80;62.20;99377.91;103476;1277;106898;-78
2023/05/22 03:39:02;;;;;;;11.40;4.80;;;;;;;9.86;62.19;99375.58;103460;1282;96771;-78
2023/05/22 03:41:29;;;;;;;14.50;5.20;;;;;;;9.91;62.33;99373.51;103386;1277;96637;-79
2023/05/22 03:43:57;;;;;;;13.30;4.90;;;;;;;9.94;62.31;99371.70;103477;1279;109996;-78
2023/05/22 03:46:25;;;;;;;15.70;5.40;;;;;;;9.97;62.37;99372.39;103487;1277;96634;-78
2023/05/22 03:48:53;;;;;;;11.00;5.20;;;;;;;10.04;62.54;99371.07;103639;1283;107966;-78
2023/05/22 03:51:21;;;;;;;17.00;5.90;;;;;;;10.11;62.48;99370.95;104230;1276;96554;-79
2023/05/22 03:53:49;;;;;;;12.20;5.20;;;;;;;10.19;62.46;99373.45;103518;1279;96645;-80
2023/05/22 03:56:17;;;;;;;15.00;5.60;;;;;;;10.26;62.52;99374.06;103561;1279;108822;-78
2023/05/22 03:58:45;;;;;;;15.30;5.60;;;;;;;10.32;62.65;99378.33;103908;1279;96575;-79
2023/05/22 04:01:12;;;;;;;11.90;4.60;;;;;;;10.36;62.63;99373.06;105823;1276;108916;-79
2023/05/22 04:03:40;;;;;;;15.00;5.90;;;;;;;10.41;62.66;99373.27;103938;1276;96586;-78
2023/05/22 04:06:09;;;;;;;16.00;5.50;;;;;;;10.49;62.58;99373.64;104506;1276;96516;-78
2023/05/22 04:08:37;;;;;;;16.30;5.60;;;;;;;10.57;62.77;99371.34;106867;1276;109041;-79
2023/05/22 04:11:05;;;;;;;14.00;5.20;;;;;;;10.64;62.81;99370.52;106171;1276;96650;-79
2023/05/22 04:13:33;;;;;;;12.60;5.40;;;;;;;10.71;62.84;99372.31;103444;1280;106954;-79
2023/05/22 04:16:01;;;;;;;11.90;5.20;;;;;;;10.81;62.84;99367.56;103653;1275;96701;-79
2023/05/22 04:18:28;;;;;;;14.20;5.40;;;;;;;10.91;62.86;99369.21;103492;1276;97226;-79
2023/05/22 04:20:56;;;;;;;13.80;6.20;;;;;;;11.02;62.85;99369.36;103457;1288;109020;-79
2023/05/22 04:23:24;;;;;;;9.80;4.50;;;;;;;11.10;62.85;99365.73;103471;1279;96657;-79
2023/05/22 04:25:52;;;;;;;12.70;5.20;;;;;;;11.18;62.81;99364.33;103579;1282;107376;-79
2023/05/22 04:28:23;;;;;;;9.80;5.00;;;;;;;11.26;62.82;99363.75;103397;1290;97339;-81
2023/05/22 04:30:53;;;;;;;15.90;6.10;;;;;;;11.34;62.91;99362.13;103398;1278;96626;-79
2023/05/22 04:33:21;;;;;;;14.10;5.90;;;;;;;11.44;62.83;99359.81;103504;1280;110279;-79
2023/05/22 04:35:50;;;;;;;13.80;5.20;;;;;;;11.57;62.95;99358.38;103489;1280;96637;-78
2023/05/22 04:38:18;;;;;;;9.30;4.70;;;;;;;11.68;62.90;99354.59;103421;1277;108615;-77
2023/05/22 04:40:46;;;;;;;12.10;5.30;;;;;;;11.78;63.06;99355.99;106928;1275;94408;-78
2023/05/22 04:43:17;;;;;;;14.10;5.30;;;;;;;11.90;63.02;99357.61;106938;1276;94367;-78
2023/05/22 04:45:45;;;;;;;15.70;6.30;;;;;;;12.20;63.57;99356.84;105305;1276;109547;-79
2023/05/22 04:48:14;;;;;;;12.10;5.10;;;;;;;12.75;64.31;99355.94;105893;1276;97608;-79
2023/05/22 04:50:45;;;;;;;14.20;4.70;;;;;;;13.25;64.64;99353.29;105059;1279;106820;-80
2023/05/22 04:53:13;;;;;;;12.60;4.70;;;;;;;13.72;64.61;99351.02;103631;1283;96571;-79
2023/05/22 04:55:41;;;;;;;9.30;4.50;;;;;;;14.10;64.73;99347.03;103872;1276;96743;-80
2023/05/22 04:58:09;;;;;;;14.70;5.00;;;;;;;14.45;64.69;99345.14;103890;1276;109315;-79
2023/05/22 05:00:37;;;;;;;16.70;5.30;;;;;;;14.71;64.48;99342.85;103878;1277;97825;-78
2023/05/22 05:03:06;;;;;;;12.50;5.00;;;;;;;14.93;64.50;99347.23;103803;1289;107381;-80
2023/05/22 05:05:35;;;;;;;11.00;4.50;;;;;;;14.81;63.25;99338.98;104112;1279;97990;-79
2023/05/22 05:08:02;;;;;;;14.90;5.10;;;;;;;14.52;62.58;99342.63;103458;1281;96635;-79
2023/05/22 05:10:31;;;;;;;16.00;5.20;;;;;;;14.29;62.44;99347.27;103705;1276;111184;-80
2023/05/22 05:12:58;;;;;;;17.50;5.50;;;;;;;14.13;62.27;99351.24;103865;1277;96638;-79
2023/05/22 05:15:26;;;;;;;13.60;5.30;;;;;;;13.99;62.42;99350.91;103887;1276;108899;-79
2023/05/22 05:17:54;;;;;;;17.00;5.90;;;;;;;13.94;62.42;99354.21;106036;1276;96625;-79
2023/05/22 05:20:23;;;;;;;15.60;5.90;;;;;;;13.91;62.43;99353.41;104395;1276;96711;-79
2023/05/22 05:22:51;;;;;;;12.20;5.70;;;;;;;13.89;62.38;99354.97;103461;1275;109007;-78
2023/05/22 05:25:19;;;;;;;15.70;5.50;;;;;;;13.83;62.32;99354.54;103389;1279;97630;-78
2023/05/22 05:27:47;;;;;;;16.10;6.10;;;;;;;13.82;62.44;99362.17;103462;1283;107113;-79
2023/05/22 05:30:15;;;;;;;15.50;5.50;;;;;;;13.81;62.39;99360.03;103462;1277;96648;-79
2023/05/22 05:32:46;;;;;;;16.50;6.10;;;;;;;13.82;62.50;99363.58;104812;1276;96568;-79
2023/05/22 05:35:14;;;;;;;15.30;5.60;;;;;;;13.82;62.45;99361.77;103860;1277;110990;-78
2023/05/22 05:37:42;;;;;;;15.90;5.80;;;;;;;13.83;62.44;99366.13;103440;1279;96744;-79
2023/05/22 05:40:11;;;;;;;14.80;5.80;;;;;;;13.87;62.44;99362.27;103372;1277;107851;-79
2023/05/22 05:42:39;;;;;;;14.00;5.40;;;;;;;13.89;62.41;99361.05;103525;1280;96641;-78
2023/05/22 05:45:08;;;;;;;11.20;5.10;;;;;;;13.89;62.48;99356.92;103393;1280;97973;-79
2023/05/22 05:47:35;;;;;;;14.30;5.80;;;;;;;13.91;62.32;99359.29;103405;1276;109377;-80
2023/05/22 05:50:03;;;;;;;11.60;5.40;;;;;;;13.92;62.35;99359.05;103353;1289;97878;-79
2023/05/22 05:52:32;;;;;;;15.50;5.90;;;;;;;13.93;62.27;99363.71;103371;1277;108823;-79
2023/05/22 05:55:00;;;;;;;13.30;5.20;;;;;;;13.96;62.43;99365.30;103365;1280;96622;-78
2023/05/22 05:57:30;;;;;;;17.70;5.70;;;;;;;14.00;62.46;99363.19;103572;1276;96561;-79
2023/05/22 05:59:57;;;;;;;14.30;5.30;;;;;;;14.04;62.54;99361.04;103503;1283;109207;-79
2023/05/22 06:02:25;;;;;;;13.40;6.10;;;;;;;14.08;62.44;99358.00;103490;1279;96629;-78
2023/05/22 06:04:54;;;;;;;13.20;5.50;;;;;;;14.11;62.33;99359.37;103426;1282;108154;-78
2023/05/22 06:07:23;;;;;;;11.40;5.30;;;;;;;14.15;62.42;99354.80;103441;1276;97463;-79
2023/05/22 06:09:51;;;;;;;15.00;5.40;;;;;;;14.19;62.44;99354.51;103414;1280;97856;-80
2023/05/22 06:12:19;;;;;;;14.90;5.00;;;;;;;14.23;62.40;99357.20;103385;1279;111026;-79
2023/05/22 06:14:46;;;;;;;16.30;5.70;;;;;;;14.27;62.33;99356.15;103397;1280;96657;-79
2023/05/22 06:17:15;;;;;;;13.30;5.00;;;;;;;14.31;62.33;99354.96;103316;1275;107754;-78
2023/05/22 06:19:43;;;;;;;12.50;5.60;;;;;;;14.35;62.47;99354.38;103574;1276;96618;-79
2023/05/22 06:22:11;;;;;;;12.20;5.00;;;;;;;14.40;62.35;99352.56;103419;1280;97835;-79
2023/05/22 06:24:39;;;;;;;12.50;5.10;;;;;;;14.43;62.35;99354.60;103502;1292;109986;-78
2023/05/22 06:27:07;;;;;;;15.20;5.20;;;;;;;14.46;62.30;99351.37;103519;1284;97448;-79
2023/05/22 06:29:35;;;;;;;14.30;5.50;;;;;;;14.51;62.40;99354.30;103549;1276;107889;-79
2023/05/22 06:32:03;;;;;;;13.80;5.30;;;;;;;14.57;62.42;99350.37;103531;1280;97453;-79
2023/05/22 06:34:30;;;;;;;14.70;5.40;;;;;;;14.63;62.35;99350.66;103408;1279;96548;-79
2023/05/22 06:36:59;;;;;;;14.20;5.30;;;;;;;14.69;62.49;99345.52;103449;1277;109519;-79
2023/05/22 06:39:26;;;;;;;15.20;5.40;;;;;;;14.76;62.46;99346.36;103485;1280;97579;-79
2023/05/22 06:41:56;;;;;;;14.50;5.30;;;;;;;14.80;62.39;99341.94;103502;1276;109094;-80
2023/05/22 06:44:26;;;;;;;17.10;6.10;;;;;;;14.83;62.41;99343.58;103521;1276;96709;-79
2023/05/22 06:46:54;;;;;;;13.10;5.30;;;;;;;14.86;62.34;99343.33;103307;1279;97003;-78
2023/05/22 06:49:22;;;;;;;15.90;6.30;;;;;;;14.91;62.23;99344.73;103347;1290;110450;-79
2023/05/22 06:51:51;;;;;;;12.80;5.20;;;;;;;14.94;62.29;99345.13;103451;1279;96634;-79
2023/05/22 06:54:20;;;;;;;16.80;6.30;;;;;;;14.99;62.28;99341.38;103470;1276;107579;-79
2023/05/22 06:56:48;;;;;;;22.30;6.50;;;;;;;15.04;62.13;99340.19;103459;1280;96740;-79
2023/05/22 06:59:16;;;;;;;19.00;5.90;;;;;;;15.10;62.22;99339.67;103467;1288;96618;-80
2023/05/22 07:01:43;;;;;;;19.50;5.90;;;;;;;15.19;62.25;99342.52;103409;1277;110122;-79
2023/05/22 07:04:12;;;;;;;18.20;6.20;;;;;;;15.26;62.20;99338.98;103406;1277;97981;-79
2023/05/22 07:06:41;;;;;;;21.90;6.10;;;;;;;15.33;62.19;99337.45;103321;1277;108618;-79
2023/05/22 07:09:12;;;;;;;19.90;5.30;;;;;;;15.40;61.96;99333.73;103377;1280;96665;-79
2023/05/22 07:11:42;;;;;;;19.70;5.80;;;;;;;15.47;62.14;99335.76;103330;1279;96663;-79
2023/05/22 07:14:11;;;;;;;18.20;5.70;;;;;;;15.54;62.19;99336.78;103436;1279;109370;-79
2023/05/22 07:16:40;;;;;;;21.50;5.50;;;;;;;15.58;61.97;99337.64;103448;1280;97849;-79
2023/05/22 07:19:09;;;;;;;12.70;5.00;;;;;;;15.64;61.94;99333.34;103509;1279;107726;-79
2023/05/22 07:21:37;;;;;;;20.00;5.60;;;;;;;15.72;62.10;99333.15;103414;1279;96726;-80
2023/05/22 07:24:08;;;;;;;15.00;5.00;;;;;;;15.81;62.03;99338.25;103800;1280;96613;-77
2023/05/22 07:26:37;;;;;;;17.50;5.70;;;;;;;15.85;61.70;99333.10;103462;1276;110312;-80
2023/05/22 07:29:05;;;;;;;13.00;5.30;;;;;;;15.89;61.75;99338.48;103530;1279;96653;-79
2023/05/22 07:31:33;;;;;;;14.60;5.30;;;;;;;15.92;61.63;99333.38;103446;1277;107674;-79
2023/05/22 07:34:01;;;;;;;14.30;5.70;;;;;;;15.97;61.73;99328.88;103477;1282;98074;-80
2023/05/22 07:36:30;;;;;;;14.30;5.30;;;;;;;16.01;61.48;99326.16;103469;1277;97992;-79
2023/05/22 07:38:58;;;;;;;16.40;5.70;;;;;;;16.02;61.24;99331.02;103452;1277;111444;-79
2023/05/22 07:41:26;;;;;;;13.60;5.10;;;;;;;16.04;61.15;99328.89;103372;1280;97991;-79
2023/05/22 07:43:54;;;;;;;12.70;4.80;;;;;;;16.07;61.11;99329.56;103495;1276;108183;-79
2023/05/22 07:46:22;;;;;;;7.30;4.40;;;;;;;16.12;60.80;99330.28;103307;1284;99346;-79
2023/05/22 07:48:50;;;;;;;9.00;4.40;;;;;;;16.19;61.01;99329.46;103968;1274;97979;-78
2023/05/22 07:51:18;;;;;;;14.50;5.20;;;;;;;16.26;60.81;99330.67;104309;1280;111335;-79
2023/05/22 07:53:46;;;;;;;10.20;4.60;;;;;;;16.26;60.52;99331.00;103969;1279;98023;-77
2023/05/22 07:56:13;;;;;;;9.40;4.10;;;;;;;16.28;60.33;99332.64;104309;1275;108935;-80
2023/05/22 07:58:42;;;;;;;8.50;4.30;;;;;;;16.35;60.47;99328.05;104293;1277;97978;-80
2023/05/22 08:01:11;;;;;;;14.70;4.90;;;;;;;16.42;60.41;99325.95;104166;1276;98049;-78
2023/05/22 08:03:39;;;;;;;12.70;4.80;;;;;;;16.49;60.65;99330.19;104039;1276;111373;-79
2023/05/22 08:06:08;;;;;;;12.80;4.60;;;;;;;16.55;60.38;99326.18;104523;1275;97973;-79
2023/05/22 08:08:35;;;;;;;8.80;4.40;;;;;;;16.64;60.43;99321.80;103811;1279;109423;-78
2023/05/22 08:11:03;;;;;;;10.10;4.20;;;;;;;16.71;60.45;99327.73;106152;1276;97947;-79
2023/05/22 08:13:31;;;;;;;12.20;5.20;;;;;;;16.76;60.11;99324.92;103579;1276;98080;-80
2023/05/22 08:15:59;;;;;;;12.80;4.50;;;;;;;16.79;60.29;99322.68;104274;1276;111316;-79
2023/05/22 08:18:28;;;;;;;14.30;4.70;;;;;;;16.85;60.24;99318.74;103547;1280;98167;-80
2023/05/22 08:20:59;;;;;;;12.40;4.70;;;;;;;16.92;60.11;99315.73;103411;1276;107766;-79
2023/05/22 08:23:26;;;;;;;11.90;4.90;;;;;;;16.96;59.82;99320.97;103567;1279;97981;-80
2023/05/22 08:25:55;;;;;;;14.30;4.50;;;;;;;17.01;59.70;99318.18;103596;1277;98017;-78
2023/05/22 08:28:23;;;;;;;13.00;4.70;;;;;;;17.05;59.68;99316.73;103449;1279;111436;-79
2023/05/22 08:30:51;;;;;;;10.50;4.30;;;;;;;17.07;59.55;99310.55;103438;1279;98213;-79
2023/05/22 08:33:19;;;;;;;8.40;3.90;;;;;;;17.11;59.64;99312.21;103469;1276;107683;-79
2023/05/22 08:35:47;;;;;;;12.60;5.00;;;;;;;17.15;59.62;99309.71;103457;1279;99329;-80
2023/05/22 08:38:16;;;;;;;10.00;4.50;;;;;;;17.18;59.47;99315.08;103458;1280;98827;-79
2023/05/22 08:40:50;;;;;;;9.70;4.20;;;;;;;17.21;59.49;99306.44;103448;1280;111012;-80
2023/05/22 08:43:20;;;;;;;11.10;4.20;;;;;;;17.26;59.21;99310.23;103498;1279;97998;-80
2023/05/22 08:46:04;;;;;;;10.10;4.20;;;;;;;17.27;59.17;99302.63;103411;1279;107637;-79
2023/05/22 08:48:33;;;;;;;10.10;4.10;;;;;;;17.32;59.50;99306.44;103437;1276;98109;-79
2023/05/22 08:51:04;;;;;;;13.10;4.90;;;;;;;17.38;59.16;99299.77;103464;1280;98101;-79
2023/05/22 08:53:35;;;;;;;12.10;4.60;;;;;;;17.44;59.05;99302.19;103438;1278;112661;-80
2023/05/22 08:56:05;;;;;;;15.90;4.40;;;;;;;17.49;59.04;99302.45;103516;1281;98081;-80
2023/05/22 08:58:35;;;;;;;13.40;4.60;;;;;;;17.51;58.74;99305.86;103527;1279;107492;-78
2023/05/22 09:01:05;;;;;;;14.60;5.30;;;;;;;17.53;58.70;99304.93;103542;1290;99311;-78
2023/05/22 09:03:53;;;;;;;16.80;4.90;;;;;;;17.55;58.70;99305.10;103459;1282;99108;-79
2023/05/22 09:06:22;;;;;;;12.70;4.80;;;;;;;17.59;58.40;99309.69;103430;1276;111514;-78
2023/05/22 09:08:50;;;;;;;17.00;5.30;;;;;;;17.62;58.62;99297.45;103492;1274;98086;-79
2023/05/22 09:11:18;;;;;;;14.60;5.10;;;;;;;17.64;58.72;99297.94;103482;1276;107844;-78
2023/05/22 09:13:48;;;;;;;10.60;4.30;;;;;;;17.68;58.54;99295.70;103574;1280;98019;-78
2023/05/22 09:16:17;;;;;;;12.10;4.50;;;;;;;17.75;58.31;99297.91;103473;1279;98100;-80
2023/05/22 09:18:45;;;;;;;16.80;5.00;;;;;;;17.81;58.33;99296.13;103469;1279;111047;-79
2023/05/22 09:21:13;;;;;;;13.70;3.80;;;;;;;17.81;58.10;99300.73;103480;1279;98023;-79
2023/05/22 09:24:00;;;;;;;8.90;4.20;;;;;;;17.83;57.55;99300.58;103428;1280;106696;-79
2023/05/22 09:26:28;;;;;;;17.10;4.30;;;;;;;17.87;57.62;99298.03;103553;1279;99212;-79
2023/05/22 09:29:00;;;;;;;12.00;4.40;;;;;;;17.91;57.98;99298.88;103470;1276;98579;-79
2023/05/22 09:31:28;;;;;;;11.60;4.30;;;;;;;17.95;57.85;99292.41;103385;1279;112049;-79
2023/05/22 09:33:58;;;;;;;12.30;4.60;;;;;;;18.01;57.94;99288.54;103394;1277;97986;-78
2023/05/22 09:36:33;;;;;;;12.60;4.70;;;;;;;18.06;57.66;99284.14;103466;1276;106416;-79
2023/05/22 09:39:03;;;;;;;14.10;4.50;;;;;;;18.09;57.28;99276.25;103372;1280;98363;-77
2023/05/22 09:41:37;;;;;;;12.80;4.70;;;;;;;18.14;57.47;99276.77;103610;1277;99308;-79
2023/05/22 09:44:15;;;;;;;8.10;4.50;;;;;;;18.20;57.50;99279.66;103571;1276;110692;-80
2023/05/22 09:46:44;;;;;;;13.90;4.60;;;;;;;18.24;57.28;99272.98;103506;1282;99655;-81
2023/05/22 09:49:13;;;;;;;12.50;4.50;;;;;;;18.34;57.35;99269.33;103780;1283;106577;-80
2023/05/22 09:51:47;;;;;;;12.00;4.30;;;;;;;18.40;56.85;99265.12;103625;1279;98043;-81
2023/05/22 09:54:19;;;;;;;11.70;4.90;;;;;;;18.48;56.98;99268.27;103676;1279;97992;-79
2023/05/22 09:56:49;;;;;;;11.20;4.60;;;;;;;18.49;56.63;99266.67;103391;1277;111460;-79
2023/05/22 09:59:25;;;;;;;12.50;4.90;;;;;;;18.52;56.91;99267.13;103385;1279;97984;-79
2023/05/22 10:01:56;;;;;;;9.30;4.30;;;;;;;18.61;56.75;99261.55;103442;1279;108718;-80
2023/05/22 10:04:26;;;;;;;9.10;4.20;;;;;;;18.71;56.49;99256.51;103471;1279;98233;-79
2023/05/22 10:06:56;;;;;;;12.30;4.70;;;;;;;18.83;56.67;99261.95;103416;1279;98100;-78
2023/05/22 10:09:30;;;;;;;14.50;4.70;;;;;;;18.94;56.42;99268.41;103428;1276;110855;-79
2023/05/22 10:12:04;;;;;;;10.50;4.30;;;;;;;18.98;56.49;99261.65;103613;1279;97988;-79
2023/05/22 10:14:34;;;;;;;12.10;4.90;;;;;;;18.99;56.28;99260.70;103261;1282;107762;-80
2023/05/22 10:17:05;;;;;;;11.70;4.90;;;;;;;19.00;56.17;99257.38;103482;1274;99018;-81
2023/05/22 10:19:35;;;;;;;9.10;4.30;;;;;;;19.12;56.45;99246.04;103519;1280;97982;-79
2023/05/22 10:22:10;;;;;;;16.00;4.50;;;;;;;19.22;55.96;99254.80;103520;1279;111414;-80
2023/05/22 10:24:38;;;;;;;10.80;4.50;;;;;;;19.22;55.75;99249.27;103510;1276;98782;-79
2023/05/22 10:27:06;;;;;;;10.10;4.40;;;;;;;19.24;55.30;99250.67;103419;1280;107743;-79
2023/05/22 10:29:39;;;;;;;14.60;4.20;;;;;;;19.29;55.49;99250.29;103606;1280;99202;-79
2023/05/22 10:32:18;;;;;;;11.90;4.00;;;;;;;19.37;55.59;99249.35;103482;1276;97992;-79
2023/05/22 10:35:15;;;;;;;11.90;4.40;;;;;;;19.46;55.32;99245.34;103390;1277;110734;-79
2023/05/22 10:37:47;;;;;;;11.00;4.60;;;;;;;19.49;55.13;99239.20;103043;1278;98896;-81
2023/05/22 10:40:27;;;;;;;10.20;4.80;;;;;;;19.56;55.27;99235.79;103391;1277;108903;-79
2023/05/22 10:42:57;;;;;;;10.60;4.70;;;;;;;19.62;55.08;99235.08;103512;1277;97994;-79
2023/05/22 10:45:27;;;;;;;11.80;5.10;;;;;;;19.60;54.71;99232.98;103472;1276;97972;-79
2023/05/22 10:48:13;;;;;;;12.70;4.20;;;;;;;19.59;54.73;99236.15;103417;1277;111356;-77
2023/05/22 10:50:51;;;;;;;12.70;4.90;;;;;;;19.60;54.35;99236.26;103444;1280;97913;-78
2023/05/22 10:53:27;;;;;;;10.50;4.90;;;;;;;19.59;54.13;99237.78;103613;1279;107672;-79
2023/05/22 10:55:56;;;;;;;15.50;4.80;;;;;;;19.59;54.59;99234.59;103446;1276;99448;-79
2023/05/22 10:58:27;;;;;;;14.50;4.50;;;;;;;19.62;54.49;99236.42;103462;1279;98205;-79
2023/05/22 11:01:11;;;;;;;14.80;5.00;;;;;;;19.62;54.30;99233.11;103584;1278;111180;-79
2023/05/22 11:04:05;;;;;;;12.10;4.50;;;;;;;19.60;54.26;99231.40;103496;1279;98196;-79
2023/05/22 11:06:44;;;;;;;9.30;4.50;;;;;;;19.60;53.69;99232.69;103446;1279;107643;-79
2023/05/22 11:09:32;;;;;;;9.90;3.90;;;;;;;19.57;53.64;99227.73;103495;1276;97957;-79
2023/05/22 11:12:23;;;;;;;10.80;4.30;;;;;;;19.61;53.74;99223.71;103509;1275;97987;-79
2023/05/22 11:14:59;;;;;;;14.20;5.20;;;;;;;19.66;53.80;99229.69;103504;1277;111554;-79
2023/05/22 11:17:31;;;;;;;8.90;4.50;;;;;;;19.71;53.74;99230.65;103551;1278;98029;-79
2023/05/22 11:20:06;;;;;;;9.80;4.50;;;;;;;19.72;53.38;99230.28;103493;1280;107706;-79
2023/05/22 11:22:41;;;;;;;12.40;4.80;;;;;;;19.72;53.44;99229.58;103520;1279;98010;-79
2023/05/22 11:25:17;;;;;;;11.60;4.60;;;;;;;19.69;53.20;99222.04;103508;1279;97994;-80
2023/05/22 11:27:48;;;;;;;12.00;4.90;;;;;;;19.67;53.24;99219.54;103391;1280;112366;-80
2023/05/22 11:30:16;;;;;;;14.50;4.40;;;;;;;19.68;53.37;99216.20;103612;1279;98584;-79
2023/05/22 11:32:46;;;;;;;8.80;4.10;;;;;;;19.72;53.14;99218.77;103933;1280;107744;-79